sensor_id;sensor_type;location;lat;lon;timestamp;temperature;humidity
20722;DHT22;10522;52.198;9.890;2022-10-16T00:00:45;13.10;99.90
20722;DHT22;10522;52.198;9.890;2022-10-16T00:03:11;13.00;99.90
20722;DHT22;10522;52.198;9.890;2022-10-16T00:05:42;13.00;99.90
20722;DHT22;10522;52.198;9.890;2022-10-16T00:08:10;13.00;99.90
20722;DHT22;10522;52.198;9.890;2022-10-16T00:10:36;13.00;99.90
20722;DHT22;10522;52.198;9.890;2022-10-16T00:13:03;12.90;99.90
20722;DHT22;10522;52.198;9.890;2022-10-16T00:15:29;12.80;99.90
20722;DHT22;10522;52.198;9.890;2022-10-16T00:17:54;12.80;99.90
20722;DHT22;10522;52.198;9.890;2022-10-16T00:20:20;12.70;99.90
20722;DHT22;10522;52.198;9.890;2022-10-16T00:22:46;12.70;99.90
20722;DHT22;10522;52.198;9.890;2022-10-16T00:25:11;12.60;99.90
20722;DHT22;10522;52.198;9.890;2022-10-16T00:27:37;12.50;99.90
20722;DHT22;10522;52.198;9.890;2022-10-16T00:30:03;12.60;99.90
20722;DHT22;10522;52.198;9.890;2022-10-16T00:32:29;12.70;99.90
20722;DHT22;10522;52.198;9.890;2022-10-16T00:34:55;12.80;99.90
20722;DHT22;10522;52.198;9.890;2022-10-16T00:37:21;12.80;99.90
20722;DHT22;10522;52.198;9.890;2022-10-16T00:39:46;12.90;99.90
20722;DHT22;10522;52.198;9.890;2022-10-16T00:42:17;12.90;99.90
20722;DHT22;10522;52.198;9.890;2022-10-16T00:44:53;13.00;99.90
20722;DHT22;10522;52.198;9.890;2022-10-16T00:49:50;13.40;99.90
20722;DHT22;10522;52.198;9.890;2022-10-16T00:52:16;13.40;99.90
20722;DHT22;10522;52.198;9.890;2022-10-16T00:54:43;13.40;99.90
20722;DHT22;10522;52.198;9.890;2022-10-16T00:57:09;13.30;99.90
20722;DHT22;10522;52.198;9.890;2022-10-16T00:59:37;13.40;99.90
20722;DHT22;10522;52.198;9.890;2022-10-16T01:02:09;13.60;99.90
20722;DHT22;10522;52.198;9.890;2022-10-16T01:04:47;13.60;99.90
20722;DHT22;10522;52.198;9.890;2022-10-16T01:28:54;13.60;99.90
20722;DHT22;10522;52.198;9.890;2022-10-16T01:31:24;13.50;99.90
20722;DHT22;10522;52.198;9.890;2022-10-16T01:34:00;13.50;99.90
20722;DHT22;10522;52.198;9.890;2022-10-16T01:36:40;13.50;99.90
20722;DHT22;10522;52.198;9.890;2022-10-16T01:39:10;13.50;99.90
20722;DHT22;10522;52.198;9.890;2022-10-16T01:41:39;13.50;99.90
20722;DHT22;10522;52.198;9.890;2022-10-16T01:44:10;13.40;99.90
20722;DHT22;10522;52.198;9.890;2022-10-16T01:46:39;13.50;99.90
20722;DHT22;10522;52.198;9.890;2022-10-16T01:49:06;13.50;99.90
20722;DHT22;10522;52.198;9.890;2022-10-16T01:51:34;13.40;99.90
20722;DHT22;10522;52.198;9.890;2022-10-16T01:54:02;13.50;99.90
20722;DHT22;10522;52.198;9.890;2022-10-16T01:56:29;13.40;99.90
20722;DHT22;10522;52.198;9.890;2022-10-16T01:59:21;13.40;99.90
20722;DHT22;10522;52.198;9.890;2022-10-16T02:01:51;13.40;99.90
20722;DHT22;10522;52.198;9.890;2022-10-16T02:04:34;13.20;99.90
20722;DHT22;10522;52.198;9.890;2022-10-16T02:07:01;13.10;99.90
20722;DHT22;10522;52.198;9.890;2022-10-16T02:09:27;13.00;99.90
20722;DHT22;10522;52.198;9.890;2022-10-16T02:11:54;12.90;99.90
20722;DHT22;10522;52.198;9.890;2022-10-16T02:14:21;12.90;99.90
20722;DHT22;10522;52.198;9.890;2022-10-16T02:16:49;12.80;99.90
20722;DHT22;10522;52.198;9.890;2022-10-16T02:19:17;12.80;99.90
20722;DHT22;10522;52.198;9.890;2022-10-16T02:22:02;12.80;99.90
20722;DHT22;10522;52.198;9.890;2022-10-16T02:24:32;12.70;99.90
20722;DHT22;10522;52.198;9.890;2022-10-16T02:29:32;12.70;99.90
20722;DHT22;10522;52.198;9.890;2022-10-16T02:32:04;12.60;99.90
20722;DHT22;10522;52.198;9.890;2022-10-16T02:34:32;12.60;99.90
20722;DHT22;10522;52.198;9.890;2022-10-16T02:37:01;12.50;99.90
20722;DHT22;10522;52.198;9.890;2022-10-16T02:39:29;12.60;99.90
20722;DHT22;10522;52.198;9.890;2022-10-16T02:41:55;12.50;99.90
20722;DHT22;10522;52.198;9.890;2022-10-16T02:44:21;12.50;99.90
20722;DHT22;10522;52.198;9.890;2022-10-16T02:46:47;12.40;99.90
20722;DHT22;10522;52.198;9.890;2022-10-16T02:49:12;12.40;99.90
20722;DHT22;10522;52.198;9.890;2022-10-16T02:51:38;12.40;99.90
20722;DHT22;10522;52.198;9.890;2022-10-16T02:54:04;12.40;99.90
20722;DHT22;10522;52.198;9.890;2022-10-16T02:56:29;12.40;99.90
20722;DHT22;10522;52.198;9.890;2022-10-16T02:58:56;12.40;99.90
20722;DHT22;10522;52.198;9.890;2022-10-16T03:01:22;12.40;99.90
20722;DHT22;10522;52.198;9.890;2022-10-16T03:03:48;12.30;99.90
20722;DHT22;10522;52.198;9.890;2022-10-16T03:06:14;12.40;99.90
20722;DHT22;10522;52.198;9.890;2022-10-16T03:08:39;12.40;99.90
20722;DHT22;10522;52.198;9.890;2022-10-16T03:11:05;12.40;99.90
20722;DHT22;10522;52.198;9.890;2022-10-16T03:13:31;12.40;99.90
20722;DHT22;10522;52.198;9.890;2022-10-16T03:15:56;12.40;99.90
20722;DHT22;10522;52.198;9.890;2022-10-16T03:18:22;12.30;99.90
20722;DHT22;10522;52.198;9.890;2022-10-16T03:20:47;12.30;99.90
20722;DHT22;10522;52.198;9.890;2022-10-16T03:23:13;12.20;99.90
20722;DHT22;10522;52.198;9.890;2022-10-16T03:25:39;12.30;99.90
20722;DHT22;10522;52.198;9.890;2022-10-16T03:28:05;12.30;99.90
20722;DHT22;10522;52.198;9.890;2022-10-16T03:30:31;12.20;99.90
20722;DHT22;10522;52.198;9.890;2022-10-16T03:32:56;12.20;99.90
20722;DHT22;10522;52.198;9.890;2022-10-16T03:35:23;12.20;99.90
20722;DHT22;10522;52.198;9.890;2022-10-16T03:37:50;12.10;99.90
20722;DHT22;10522;52.198;9.890;2022-10-16T03:40:16;12.10;99.90
20722;DHT22;10522;52.198;9.890;2022-10-16T03:42:45;12.20;99.90
20722;DHT22;10522;52.198;9.890;2022-10-16T03:45:12;12.20;99.90
20722;DHT22;10522;52.198;9.890;2022-10-16T03:47:37;12.20;99.90
20722;DHT22;10522;52.198;9.890;2022-10-16T03:50:04;12.20;99.90
20722;DHT22;10522;52.198;9.890;2022-10-16T03:52:30;12.20;99.90
20722;DHT22;10522;52.198;9.890;2022-10-16T03:54:55;12.20;99.90
20722;DHT22;10522;52.198;9.890;2022-10-16T03:57:21;12.10;99.90
20722;DHT22;10522;52.198;9.890;2022-10-16T03:59:47;12.10;99.90
20722;DHT22;10522;52.198;9.890;2022-10-16T04:02:13;12.10;99.90
20722;DHT22;10522;52.198;9.890;2022-10-16T04:04:38;12.10;99.90
20722;DHT22;10522;52.198;9.890;2022-10-16T04:07:04;12.10;99.90
20722;DHT22;10522;52.198;9.890;2022-10-16T04:09:30;12.10;99.90
20722;DHT22;10522;52.198;9.890;2022-10-16T04:11:56;12.10;99.90
20722;DHT22;10522;52.198;9.890;2022-10-16T04:14:21;12.10;99.90
20722;DHT22;10522;52.198;9.890;2022-10-16T04:16:47;12.20;99.90
20722;DHT22;10522;52.198;9.890;2022-10-16T04:19:13;12.10;99.90
20722;DHT22;10522;52.198;9.890;2022-10-16T04:21:39;12.10;99.90
20722;DHT22;10522;52.198;9.890;2022-10-16T04:24:04;12.10;99.90
20722;DHT22;10522;52.198;9.890;2022-10-16T04:26:30;12.10;99.90
20722;DHT22;10522;52.198;9.890;2022-10-16T04:28:56;12.10;99.90
20722;DHT22;10522;52.198;9.890;2022-10-16T04:31:22;12.00;99.90
20722;DHT22;10522;52.198;9.890;2022-10-16T04:33:47;12.10;99.90
20722;DHT22;10522;52.198;9.890;2022-10-16T04:36:13;12.10;99.90
20722;DHT22;10522;52.198;9.890;2022-10-16T04:38:39;12.10;99.90
20722;DHT22;10522;52.198;9.890;2022-10-16T04:41:06;12.10;99.90
20722;DHT22;10522;52.198;9.890;2022-10-16T04:43:32;12.20;99.90
20722;DHT22;10522;52.198;9.890;2022-10-16T04:45:58;12.20;99.90
20722;DHT22;10522;52.198;9.890;2022-10-16T04:48:23;12.20;99.90
20722;DHT22;10522;52.198;9.890;2022-10-16T04:50:49;12.30;99.90
20722;DHT22;10522;52.198;9.890;2022-10-16T04:53:15;12.30;99.90
20722;DHT22;10522;52.198;9.890;2022-10-16T04:55:41;12.30;99.90
20722;DHT22;10522;52.198;9.890;2022-10-16T04:58:08;12.20;99.90
20722;DHT22;10522;52.198;9.890;2022-10-16T05:00:34;12.30;99.90
20722;DHT22;10522;52.198;9.890;2022-10-16T05:03:00;12.20;99.90
20722;DHT22;10522;52.198;9.890;2022-10-16T05:05:27;12.30;99.90
20722;DHT22;10522;52.198;9.890;2022-10-16T05:07:52;12.30;99.90
20722;DHT22;10522;52.198;9.890;2022-10-16T05:10:18;12.30;99.90
20722;DHT22;10522;52.198;9.890;2022-10-16T05:12:45;12.40;99.90
20722;DHT22;10522;52.198;9.890;2022-10-16T05:15:11;12.40;99.90
20722;DHT22;10522;52.198;9.890;2022-10-16T05:17:36;12.40;99.90
20722;DHT22;10522;52.198;9.890;2022-10-16T05:20:02;12.40;99.90
20722;DHT22;10522;52.198;9.890;2022-10-16T05:22:28;12.40;99.90
20722;DHT22;10522;52.198;9.890;2022-10-16T05:24:54;12.40;99.90
20722;DHT22;10522;52.198;9.890;2022-10-16T05:27:20;12.30;99.90
20722;DHT22;10522;52.198;9.890;2022-10-16T05:29:47;12.30;99.90
20722;DHT22;10522;52.198;9.890;2022-10-16T05:32:18;12.20;99.90
20722;DHT22;10522;52.198;9.890;2022-10-16T05:34:45;12.10;99.90
20722;DHT22;10522;52.198;9.890;2022-10-16T05:37:11;12.10;99.90
20722;DHT22;10522;52.198;9.890;2022-10-16T05:39:38;12.00;99.90
20722;DHT22;10522;52.198;9.890;2022-10-16T05:42:04;12.10;99.90
20722;DHT22;10522;52.198;9.890;2022-10-16T05:44:30;12.10;99.90
20722;DHT22;10522;52.198;9.890;2022-10-16T05:46:56;12.10;99.90
20722;DHT22;10522;52.198;9.890;2022-10-16T05:49:21;12.20;99.90
20722;DHT22;10522;52.198;9.890;2022-10-16T05:51:47;12.40;99.90
20722;DHT22;10522;52.198;9.890;2022-10-16T05:54:13;12.40;99.90
20722;DHT22;10522;52.198;9.890;2022-10-16T05:56:38;12.40;99.90
20722;DHT22;10522;52.198;9.890;2022-10-16T05:59:04;12.60;99.90
20722;DHT22;10522;52.198;9.890;2022-10-16T06:01:30;12.60;99.90
20722;DHT22;10522;52.198;9.890;2022-10-16T06:03:56;12.80;99.90
20722;DHT22;10522;52.198;9.890;2022-10-16T06:06:25;12.80;99.90
20722;DHT22;10522;52.198;9.890;2022-10-16T06:08:52;12.90;99.90
20722;DHT22;10522;52.198;9.890;2022-10-16T06:11:25;12.80;99.90
20722;DHT22;10522;52.198;9.890;2022-10-16T06:13:53;12.70;99.90
20722;DHT22;10522;52.198;9.890;2022-10-16T06:16:20;12.80;99.90
20722;DHT22;10522;52.198;9.890;2022-10-16T06:18:46;12.90;99.90
20722;DHT22;10522;52.198;9.890;2022-10-16T06:21:16;12.90;99.90
20722;DHT22;10522;52.198;9.890;2022-10-16T06:23:42;13.00;99.90
20722;DHT22;10522;52.198;9.890;2022-10-16T06:26:10;13.10;99.90
20722;DHT22;10522;52.198;9.890;2022-10-16T06:28:36;13.10;99.90
20722;DHT22;10522;52.198;9.890;2022-10-16T06:31:03;13.10;99.90
20722;DHT22;10522;52.198;9.890;2022-10-16T06:33:29;13.20;99.90
20722;DHT22;10522;52.198;9.890;2022-10-16T06:36:04;13.40;99.90
20722;DHT22;10522;52.198;9.890;2022-10-16T06:38:30;13.50;99.90
20722;DHT22;10522;52.198;9.890;2022-10-16T06:40:56;13.60;99.90
20722;DHT22;10522;52.198;9.890;2022-10-16T06:43:22;13.60;99.90
20722;DHT22;10522;52.198;9.890;2022-10-16T06:45:56;13.60;99.90
20722;DHT22;10522;52.198;9.890;2022-10-16T06:48:22;13.60;99.90
20722;DHT22;10522;52.198;9.890;2022-10-16T06:50:59;13.70;99.90
20722;DHT22;10522;52.198;9.890;2022-10-16T06:53:28;13.80;99.90
20722;DHT22;10522;52.198;9.890;2022-10-16T06:55:54;13.90;99.90
20722;DHT22;10522;52.198;9.890;2022-10-16T06:58:20;14.00;99.90
20722;DHT22;10522;52.198;9.890;2022-10-16T07:00:48;14.20;99.90
20722;DHT22;10522;52.198;9.890;2022-10-16T07:03:14;14.30;99.90
20722;DHT22;10522;52.198;9.890;2022-10-16T07:05:41;14.40;99.90
20722;DHT22;10522;52.198;9.890;2022-10-16T07:08:08;14.50;99.90
20722;DHT22;10522;52.198;9.890;2022-10-16T07:10:43;14.70;99.90
20722;DHT22;10522;52.198;9.890;2022-10-16T07:13:09;14.70;99.90
20722;DHT22;10522;52.198;9.890;2022-10-16T07:15:38;14.70;99.90
20722;DHT22;10522;52.198;9.890;2022-10-16T07:18:04;14.80;99.90
20722;DHT22;10522;52.198;9.890;2022-10-16T07:20:29;14.80;99.90
20722;DHT22;10522;52.198;9.890;2022-10-16T07:22:55;14.90;99.90
20722;DHT22;10522;52.198;9.890;2022-10-16T07:25:21;14.90;99.90
20722;DHT22;10522;52.198;9.890;2022-10-16T07:27:47;14.90;99.90
20722;DHT22;10522;52.198;9.890;2022-10-16T07:30:12;15.00;99.90
20722;DHT22;10522;52.198;9.890;2022-10-16T07:32:38;15.10;99.90
20722;DHT22;10522;52.198;9.890;2022-10-16T07:35:05;15.10;99.90
20722;DHT22;10522;52.198;9.890;2022-10-16T07:37:31;15.10;99.90
20722;DHT22;10522;52.198;9.890;2022-10-16T07:39:56;15.10;99.90
20722;DHT22;10522;52.198;9.890;2022-10-16T07:42:22;15.10;99.90
20722;DHT22;10522;52.198;9.890;2022-10-16T07:44:48;15.10;99.90
20722;DHT22;10522;52.198;9.890;2022-10-16T07:47:13;15.20;99.90
20722;DHT22;10522;52.198;9.890;2022-10-16T07:49:39;15.30;99.90
20722;DHT22;10522;52.198;9.890;2022-10-16T07:52:05;15.50;99.90
20722;DHT22;10522;52.198;9.890;2022-10-16T07:54:30;15.60;99.90
20722;DHT22;10522;52.198;9.890;2022-10-16T07:56:56;15.70;99.90
20722;DHT22;10522;52.198;9.890;2022-10-16T07:59:22;15.80;99.90
20722;DHT22;10522;52.198;9.890;2022-10-16T08:01:49;15.70;99.90
20722;DHT22;10522;52.198;9.890;2022-10-16T08:04:15;15.70;99.90
20722;DHT22;10522;52.198;9.890;2022-10-16T08:06:42;15.70;99.90
20722;DHT22;10522;52.198;9.890;2022-10-16T08:09:08;15.60;99.90
20722;DHT22;10522;52.198;9.890;2022-10-16T08:11:34;15.60;99.90
20722;DHT22;10522;52.198;9.890;2022-10-16T08:14:00;15.70;99.90
20722;DHT22;10522;52.198;9.890;2022-10-16T08:16:25;15.80;99.90
20722;DHT22;10522;52.198;9.890;2022-10-16T08:18:51;15.80;99.90
20722;DHT22;10522;52.198;9.890;2022-10-16T08:21:19;15.70;99.90
20722;DHT22;10522;52.198;9.890;2022-10-16T08:23:45;15.80;99.90
20722;DHT22;10522;52.198;9.890;2022-10-16T08:26:12;15.80;99.90
20722;DHT22;10522;52.198;9.890;2022-10-16T08:28:38;15.90;99.90
20722;DHT22;10522;52.198;9.890;2022-10-16T08:31:10;16.00;99.90
20722;DHT22;10522;52.198;9.890;2022-10-16T08:33:38;16.00;99.90
20722;DHT22;10522;52.198;9.890;2022-10-16T08:36:05;15.90;99.90
20722;DHT22;10522;52.198;9.890;2022-10-16T08:38:31;16.00;99.90
20722;DHT22;10522;52.198;9.890;2022-10-16T08:49:09;16.50;99.90
20722;DHT22;10522;52.198;9.890;2022-10-16T08:51:37;16.60;99.90
20722;DHT22;10522;52.198;9.890;2022-10-16T08:54:06;16.70;99.90
20722;DHT22;10522;52.198;9.890;2022-10-16T08:56:36;16.60;99.90
20722;DHT22;10522;52.198;9.890;2022-10-16T08:59:03;16.60;99.90
20722;DHT22;10522;52.198;9.890;2022-10-16T09:01:45;16.50;99.90
20722;DHT22;10522;52.198;9.890;2022-10-16T09:04:40;16.40;99.90
20722;DHT22;10522;52.198;9.890;2022-10-16T09:07:37;16.40;99.90
20722;DHT22;10522;52.198;9.890;2022-10-16T09:10:17;16.30;99.90
20722;DHT22;10522;52.198;9.890;2022-10-16T09:13:01;16.30;99.90
20722;DHT22;10522;52.198;9.890;2022-10-16T09:23:32;16.60;99.90
20722;DHT22;10522;52.198;9.890;2022-10-16T09:25:59;16.50;99.90
20722;DHT22;10522;52.198;9.890;2022-10-16T09:28:25;16.60;99.90
20722;DHT22;10522;52.198;9.890;2022-10-16T09:30:51;16.90;99.90
20722;DHT22;10522;52.198;9.890;2022-10-16T09:33:25;16.90;99.90
20722;DHT22;10522;52.198;9.890;2022-10-16T09:35:56;17.10;99.90
20722;DHT22;10522;52.198;9.890;2022-10-16T09:38:30;17.10;99.90
20722;DHT22;10522;52.198;9.890;2022-10-16T09:40:58;17.20;99.90
20722;DHT22;10522;52.198;9.890;2022-10-16T09:45:59;17.30;99.90
20722;DHT22;10522;52.198;9.890;2022-10-16T09:48:49;17.40;99.90
20722;DHT22;10522;52.198;9.890;2022-10-16T09:51:35;17.50;99.90
20722;DHT22;10522;52.198;9.890;2022-10-16T09:54:13;17.60;99.90
20722;DHT22;10522;52.198;9.890;2022-10-16T09:56:39;17.60;99.90
20722;DHT22;10522;52.198;9.890;2022-10-16T09:59:14;17.60;99.90
20722;DHT22;10522;52.198;9.890;2022-10-16T10:01:49;17.70;99.90
20722;DHT22;10522;52.198;9.890;2022-10-16T10:04:20;17.80;99.90
20722;DHT22;10522;52.198;9.890;2022-10-16T10:06:48;17.90;99.90
20722;DHT22;10522;52.198;9.890;2022-10-16T10:09:35;18.00;99.90
20722;DHT22;10522;52.198;9.890;2022-10-16T10:12:04;18.00;99.90
20722;DHT22;10522;52.198;9.890;2022-10-16T10:14:38;18.10;99.90
20722;DHT22;10522;52.198;9.890;2022-10-16T10:19:59;18.20;99.90
20722;DHT22;10522;52.198;9.890;2022-10-16T10:22:47;18.30;99.90
20722;DHT22;10522;52.198;9.890;2022-10-16T10:34:19;18.30;99.90
20722;DHT22;10522;52.198;9.890;2022-10-16T10:36:56;18.30;99.90
20722;DHT22;10522;52.198;9.890;2022-10-16T10:46:04;18.40;99.90
20722;DHT22;10522;52.198;9.890;2022-10-16T11:00:24;18.90;99.90
20722;DHT22;10522;52.198;9.890;2022-10-16T11:08:50;17.80;99.90
20722;DHT22;10522;52.198;9.890;2022-10-16T11:11:47;18.20;99.90
20722;DHT22;10522;52.198;9.890;2022-10-16T11:14:26;18.40;99.90
20722;DHT22;10522;52.198;9.890;2022-10-16T11:17:14;18.70;99.90
20722;DHT22;10522;52.198;9.890;2022-10-16T11:19:48;18.70;99.90
20722;DHT22;10522;52.198;9.890;2022-10-16T11:24:45;18.90;99.90
20722;DHT22;10522;52.198;9.890;2022-10-16T11:27:19;18.90;99.90
20722;DHT22;10522;52.198;9.890;2022-10-16T11:29:55;19.00;99.90
20722;DHT22;10522;52.198;9.890;2022-10-16T11:32:30;19.20;99.90
20722;DHT22;10522;52.198;9.890;2022-10-16T11:35:22;19.40;99.90
20722;DHT22;10522;52.198;9.890;2022-10-16T11:37:53;19.60;99.90
20722;DHT22;10522;52.198;9.890;2022-10-16T11:40:32;19.40;99.90
20722;DHT22;10522;52.198;9.890;2022-10-16T11:43:25;19.50;99.90
20722;DHT22;10522;52.198;9.890;2022-10-16T11:46:08;19.60;99.90
20722;DHT22;10522;52.198;9.890;2022-10-16T11:48:47;19.80;99.90
20722;DHT22;10522;52.198;9.890;2022-10-16T11:51:43;19.70;99.90
20722;DHT22;10522;52.198;9.890;2022-10-16T11:57:13;19.70;99.90
20722;DHT22;10522;52.198;9.890;2022-10-16T12:08:50;19.90;99.90
20722;DHT22;10522;52.198;9.890;2022-10-16T12:11:34;20.10;99.90
20722;DHT22;10522;52.198;9.890;2022-10-16T12:14:22;20.20;99.90
20722;DHT22;10522;52.198;9.890;2022-10-16T12:17:24;20.10;99.90
20722;DHT22;10522;52.198;9.890;2022-10-16T12:28:35;20.20;99.90
20722;DHT22;10522;52.198;9.890;2022-10-16T12:31:09;20.30;99.90
20722;DHT22;10522;52.198;9.890;2022-10-16T12:49:55;20.50;99.90
20722;DHT22;10522;52.198;9.890;2022-10-16T12:52:38;20.40;99.90
20722;DHT22;10522;52.198;9.890;2022-10-16T12:55:16;20.40;99.90
20722;DHT22;10522;52.198;9.890;2022-10-16T13:28:06;19.90;99.90
20722;DHT22;10522;52.198;9.890;2022-10-16T13:30:54;20.00;99.90
20722;DHT22;10522;52.198;9.890;2022-10-16T13:34:14;20.30;99.90
20722;DHT22;10522;52.198;9.890;2022-10-16T13:40:04;20.40;99.90
20722;DHT22;10522;52.198;9.890;2022-10-16T13:53:47;20.80;99.90
20722;DHT22;10522;52.198;9.890;2022-10-16T14:05:30;21.00;99.90
20722;DHT22;10522;52.198;9.890;2022-10-16T14:08:09;20.70;99.90
20722;DHT22;10522;52.198;9.890;2022-10-16T14:10:57;20.60;99.90
20722;DHT22;10522;52.198;9.890;2022-10-16T14:13:31;20.30;99.90
20722;DHT22;10522;52.198;9.890;2022-10-16T14:16:07;19.80;99.90
20722;DHT22;10522;52.198;9.890;2022-10-16T14:18:33;19.80;99.90
20722;DHT22;10522;52.198;9.890;2022-10-16T14:21:25;20.00;99.90
20722;DHT22;10522;52.198;9.890;2022-10-16T14:23:58;20.20;99.90
20722;DHT22;10522;52.198;9.890;2022-10-16T14:26:44;20.30;99.90
20722;DHT22;10522;52.198;9.890;2022-10-16T14:29:19;20.40;99.90
20722;DHT22;10522;52.198;9.890;2022-10-16T14:32:01;20.40;99.90
20722;DHT22;10522;52.198;9.890;2022-10-16T14:34:35;20.20;99.90
20722;DHT22;10522;52.198;9.890;2022-10-16T14:37:29;20.10;99.90
20722;DHT22;10522;52.198;9.890;2022-10-16T14:39:56;20.10;99.90
20722;DHT22;10522;52.198;9.890;2022-10-16T14:42:24;20.10;99.90
20722;DHT22;10522;52.198;9.890;2022-10-16T14:44:52;20.10;99.90
20722;DHT22;10522;52.198;9.890;2022-10-16T14:47:21;20.50;99.90
20722;DHT22;10522;52.198;9.890;2022-10-16T14:49:50;21.00;99.90
20722;DHT22;10522;52.198;9.890;2022-10-16T14:52:16;21.40;99.90
20722;DHT22;10522;52.198;9.890;2022-10-16T14:54:43;21.10;99.90
20722;DHT22;10522;52.198;9.890;2022-10-16T14:57:23;20.60;99.90
20722;DHT22;10522;52.198;9.890;2022-10-16T14:59:49;20.30;99.90
20722;DHT22;10522;52.198;9.890;2022-10-16T15:04:49;21.00;99.90
20722;DHT22;10522;52.198;9.890;2022-10-16T15:07:15;21.50;99.90
20722;DHT22;10522;52.198;9.890;2022-10-16T15:09:41;21.90;99.90
20722;DHT22;10522;52.198;9.890;2022-10-16T15:12:07;22.30;99.90
20722;DHT22;10522;52.198;9.890;2022-10-16T15:14:33;22.80;99.90
20722;DHT22;10522;52.198;9.890;2022-10-16T15:16:59;23.00;99.90
20722;DHT22;10522;52.198;9.890;2022-10-16T15:19:25;23.10;99.90
20722;DHT22;10522;52.198;9.890;2022-10-16T15:21:50;23.50;99.90
20722;DHT22;10522;52.198;9.890;2022-10-16T15:24:17;23.60;99.90
20722;DHT22;10522;52.198;9.890;2022-10-16T15:26:43;23.60;99.90
20722;DHT22;10522;52.198;9.890;2022-10-16T15:29:11;24.00;99.90
20722;DHT22;10522;52.198;9.890;2022-10-16T15:31:37;23.80;99.90
20722;DHT22;10522;52.198;9.890;2022-10-16T15:34:04;23.40;99.90
20722;DHT22;10522;52.198;9.890;2022-10-16T15:36:36;22.60;99.90
20722;DHT22;10522;52.198;9.890;2022-10-16T15:39:22;21.60;99.90
20722;DHT22;10522;52.198;9.890;2022-10-16T15:41:48;20.40;99.90
20722;DHT22;10522;52.198;9.890;2022-10-16T15:44:19;19.40;99.90
20722;DHT22;10522;52.198;9.890;2022-10-16T15:46:46;18.60;99.90
20722;DHT22;10522;52.198;9.890;2022-10-16T15:49:12;18.10;99.90
20722;DHT22;10522;52.198;9.890;2022-10-16T15:51:39;17.80;99.90
20722;DHT22;10522;52.198;9.890;2022-10-16T15:54:05;17.90;99.90
20722;DHT22;10522;52.198;9.890;2022-10-16T15:56:31;18.80;99.90
20722;DHT22;10522;52.198;9.890;2022-10-16T15:58:59;19.60;99.90
20722;DHT22;10522;52.198;9.890;2022-10-16T16:01:25;20.10;99.90
20722;DHT22;10522;52.198;9.890;2022-10-16T16:03:55;19.60;99.90
20722;DHT22;10522;52.198;9.890;2022-10-16T16:06:21;18.90;99.90
20722;DHT22;10522;52.198;9.890;2022-10-16T16:08:48;18.00;99.90
20722;DHT22;10522;52.198;9.890;2022-10-16T16:11:15;17.40;99.90
20722;DHT22;10522;52.198;9.890;2022-10-16T16:13:41;16.90;99.90
20722;DHT22;10522;52.198;9.890;2022-10-16T16:16:09;16.80;99.90
20722;DHT22;10522;52.198;9.890;2022-10-16T16:18:35;16.60;99.90
20722;DHT22;10522;52.198;9.890;2022-10-16T16:21:01;16.30;99.90
20722;DHT22;10522;52.198;9.890;2022-10-16T16:23:27;16.20;99.90
20722;DHT22;10522;52.198;9.890;2022-10-16T16:26:14;16.00;99.90
20722;DHT22;10522;52.198;9.890;2022-10-16T16:28:42;15.80;99.90
20722;DHT22;10522;52.198;9.890;2022-10-16T16:31:08;15.80;99.90
20722;DHT22;10522;52.198;9.890;2022-10-16T16:33:36;15.70;99.90
20722;DHT22;10522;52.198;9.890;2022-10-16T16:36:06;15.60;99.90
20722;DHT22;10522;52.198;9.890;2022-10-16T16:38:32;15.60;99.90
20722;DHT22;10522;52.198;9.890;2022-10-16T16:40:58;15.50;99.90
20722;DHT22;10522;52.198;9.890;2022-10-16T16:43:27;15.50;99.90
20722;DHT22;10522;52.198;9.890;2022-10-16T16:45:54;15.30;99.90
20722;DHT22;10522;52.198;9.890;2022-10-16T16:48:21;15.20;99.90
20722;DHT22;10522;52.198;9.890;2022-10-16T16:50:47;15.10;99.90
20722;DHT22;10522;52.198;9.890;2022-10-16T16:53:13;15.00;99.90
20722;DHT22;10522;52.198;9.890;2022-10-16T16:55:39;15.00;99.90
20722;DHT22;10522;52.198;9.890;2022-10-16T16:58:04;14.90;99.90
20722;DHT22;10522;52.198;9.890;2022-10-16T17:00:30;14.90;99.90
20722;DHT22;10522;52.198;9.890;2022-10-16T17:02:56;14.90;99.90
20722;DHT22;10522;52.198;9.890;2022-10-16T17:05:22;14.90;99.90
20722;DHT22;10522;52.198;9.890;2022-10-16T17:07:48;15.00;99.90
20722;DHT22;10522;52.198;9.890;2022-10-16T17:10:14;15.00;99.90
20722;DHT22;10522;52.198;9.890;2022-10-16T17:12:40;15.00;99.90
20722;DHT22;10522;52.198;9.890;2022-10-16T17:15:06;15.00;99.90
20722;DHT22;10522;52.198;9.890;2022-10-16T17:17:32;15.00;99.90
20722;DHT22;10522;52.198;9.890;2022-10-16T17:19:58;15.00;99.90
20722;DHT22;10522;52.198;9.890;2022-10-16T17:22:23;15.00;99.90
20722;DHT22;10522;52.198;9.890;2022-10-16T17:24:50;15.10;99.90
20722;DHT22;10522;52.198;9.890;2022-10-16T17:27:17;15.20;99.90
20722;DHT22;10522;52.198;9.890;2022-10-16T17:29:43;15.10;99.90
20722;DHT22;10522;52.198;9.890;2022-10-16T17:32:09;15.00;99.90
20722;DHT22;10522;52.198;9.890;2022-10-16T17:34:36;15.00;99.90
20722;DHT22;10522;52.198;9.890;2022-10-16T17:37:02;15.00;99.90
20722;DHT22;10522;52.198;9.890;2022-10-16T17:39:28;15.00;99.90
20722;DHT22;10522;52.198;9.890;2022-10-16T17:41:54;15.00;99.90
20722;DHT22;10522;52.198;9.890;2022-10-16T17:44:20;15.00;99.90
20722;DHT22;10522;52.198;9.890;2022-10-16T17:46:50;14.90;99.90
20722;DHT22;10522;52.198;9.890;2022-10-16T17:49:17;14.80;99.90
20722;DHT22;10522;52.198;9.890;2022-10-16T17:51:43;14.80;99.90
20722;DHT22;10522;52.198;9.890;2022-10-16T17:54:09;14.80;99.90
20722;DHT22;10522;52.198;9.890;2022-10-16T17:56:36;14.80;99.90
20722;DHT22;10522;52.198;9.890;2022-10-16T17:59:03;14.80;99.90
20722;DHT22;10522;52.198;9.890;2022-10-16T18:01:31;14.80;99.90
20722;DHT22;10522;52.198;9.890;2022-10-16T18:06:30;14.90;99.90
20722;DHT22;10522;52.198;9.890;2022-10-16T18:08:57;14.90;99.90
20722;DHT22;10522;52.198;9.890;2022-10-16T18:11:23;14.90;99.90
20722;DHT22;10522;52.198;9.890;2022-10-16T18:13:57;14.80;99.90
20722;DHT22;10522;52.198;9.890;2022-10-16T18:16:24;14.90;99.90
20722;DHT22;10522;52.198;9.890;2022-10-16T18:18:50;14.90;99.90
20722;DHT22;10522;52.198;9.890;2022-10-16T18:21:18;14.80;99.90
20722;DHT22;10522;52.198;9.890;2022-10-16T18:23:44;14.80;99.90
20722;DHT22;10522;52.198;9.890;2022-10-16T18:26:12;14.80;99.90
20722;DHT22;10522;52.198;9.890;2022-10-16T18:28:39;14.80;99.90
20722;DHT22;10522;52.198;9.890;2022-10-16T18:31:14;14.80;99.90
20722;DHT22;10522;52.198;9.890;2022-10-16T18:33:41;14.80;99.90
20722;DHT22;10522;52.198;9.890;2022-10-16T18:36:13;14.90;99.90
20722;DHT22;10522;52.198;9.890;2022-10-16T18:38:39;14.90;99.90
20722;DHT22;10522;52.198;9.890;2022-10-16T18:41:05;14.90;99.90
20722;DHT22;10522;52.198;9.890;2022-10-16T18:43:33;14.80;99.90